createdAt,value
2018-12-04T00:01:32.124Z,17.71
2018-12-04T00:03:58.199Z,17.52
2018-12-04T00:06:24.212Z,16.87
2018-12-04T00:08:50.185Z,17.35
2018-12-04T00:11:16.244Z,17.73
2018-12-04T00:13:42.206Z,17.37
2018-12-04T00:16:08.201Z,17.06
2018-12-04T00:18:34.224Z,16.94
2018-12-04T00:21:00.178Z,16.71
2018-12-04T00:23:26.215Z,16.34
2018-12-04T00:25:52.212Z,16.26
2018-12-04T00:28:18.287Z,16.39
2018-12-04T00:30:44.352Z,16.00
2018-12-04T00:33:10.350Z,15.64
2018-12-04T00:35:36.307Z,16.06
2018-12-04T00:38:05.459Z,15.86
2018-12-04T00:40:31.559Z,15.64
2018-12-04T00:42:57.572Z,15.57
2018-12-04T00:45:23.535Z,15.60
2018-12-04T00:47:49.540Z,15.75
2018-12-04T00:50:15.509Z,15.34
2018-12-04T00:52:41.568Z,14.94
2018-12-04T00:55:07.540Z,14.88
2018-12-04T00:57:33.604Z,15.14
2018-12-04T00:59:59.651Z,14.90
2018-12-04T01:02:25.748Z,15.17
2018-12-04T01:04:51.738Z,15.02
2018-12-04T01:07:17.698Z,15.23
2018-12-04T01:09:43.753Z,15.02
2018-12-04T01:12:09.721Z,15.13
2018-12-04T01:14:35.720Z,15.16
2018-12-04T01:17:01.708Z,15.28
2018-12-04T01:19:27.731Z,15.28
2018-12-04T01:21:53.697Z,14.86
2018-12-04T01:24:19.694Z,15.27
2018-12-04T01:26:45.702Z,15.49
2018-12-04T01:29:11.693Z,15.31
2018-12-04T01:31:37.668Z,15.67
2018-12-04T01:34:03.677Z,15.36
2018-12-04T01:36:32.258Z,15.32
2018-12-04T01:38:58.342Z,15.04
2018-12-04T01:41:24.311Z,14.93
2018-12-04T01:43:50.301Z,14.82
2018-12-04T01:46:16.258Z,14.82
2018-12-04T01:48:42.265Z,14.68
2018-12-04T01:51:08.465Z,15.12
2018-12-04T01:53:34.415Z,15.07
2018-12-04T01:56:00.437Z,14.93
2018-12-04T01:58:26.483Z,14.72
2018-12-04T02:00:52.477Z,14.84
2018-12-04T02:03:18.458Z,14.78
2018-12-04T02:05:44.462Z,14.65
2018-12-04T02:08:10.442Z,14.91
2018-12-04T02:10:36.496Z,14.58
2018-12-04T02:13:02.480Z,14.78
2018-12-04T02:15:29.142Z,14.86
2018-12-04T02:17:55.209Z,14.89
2018-12-04T02:20:21.190Z,14.72
2018-12-04T02:22:47.144Z,14.60
2018-12-04T02:25:13.123Z,14.27
2018-12-04T02:27:39.187Z,14.79
2018-12-04T02:30:05.136Z,14.52
2018-12-04T02:32:31.151Z,13.94
2018-12-04T02:34:57.111Z,14.68
2018-12-04T02:37:23.123Z,14.30
2018-12-04T02:39:49.091Z,13.93
2018-12-04T02:42:17.119Z,14.14
2018-12-04T02:44:43.068Z,14.34
2018-12-04T02:47:09.094Z,14.26
2018-12-04T02:49:35.126Z,14.28
2018-12-04T02:52:01.118Z,14.36
2018-12-04T02:54:27.122Z,14.43
2018-12-04T02:56:53.096Z,14.45
2018-12-04T02:59:19.093Z,14.30
2018-12-04T03:01:45.055Z,14.33
2018-12-04T03:04:11.076Z,14.52
2018-12-04T03:06:37.041Z,14.59
2018-12-04T03:09:04.933Z,14.02
2018-12-04T03:11:30.897Z,14.54
2018-12-04T03:13:56.896Z,14.15
2018-12-04T03:16:22.902Z,14.32
2018-12-04T03:18:48.990Z,14.47
2018-12-04T03:21:14.961Z,14.26
2018-12-04T03:23:41.579Z,13.97
2018-12-04T03:26:07.642Z,13.97
2018-12-04T03:28:33.613Z,13.82
2018-12-04T03:30:59.619Z,13.98
2018-12-04T03:33:35.291Z,14.66
2018-12-04T03:36:01.344Z,14.14
2018-12-04T03:38:27.304Z,14.05
2018-12-04T03:40:53.306Z,13.98
2018-12-04T03:43:19.268Z,14.04
2018-12-04T03:45:45.245Z,14.60
2018-12-04T03:48:11.198Z,14.04
2018-12-04T03:50:37.228Z,14.23
2018-12-04T03:53:03.229Z,14.15
2018-12-04T03:55:29.221Z,14.39
2018-12-04T03:57:55.293Z,14.06
2018-12-04T04:00:21.253Z,14.24
2018-12-04T04:02:47.240Z,14.24
2018-12-04T04:05:13.203Z,14.53
2018-12-04T04:07:39.210Z,14.00
2018-12-04T04:10:05.185Z,13.95
2018-12-04T04:12:31.175Z,13.88
2018-12-04T04:14:57.146Z,13.86
2018-12-04T04:17:23.140Z,14.45
2018-12-04T04:19:49.108Z,13.93
2018-12-04T04:22:15.110Z,13.97
2018-12-04T04:24:41.105Z,14.10
2018-12-04T04:27:07.105Z,13.91
2018-12-04T04:29:33.082Z,13.89
2018-12-04T04:31:59.117Z,14.29
2018-12-04T04:34:25.082Z,14.28
2018-12-04T04:36:51.070Z,14.69
2018-12-04T04:39:17.078Z,13.85
2018-12-04T04:41:43.061Z,14.07
2018-12-04T04:44:09.068Z,14.34
2018-12-04T04:46:35.099Z,13.83
2018-12-04T04:49:01.685Z,13.83
2018-12-04T04:51:27.743Z,13.93
2018-12-04T04:53:53.760Z,14.44
2018-12-04T04:56:19.735Z,14.12
2018-12-04T04:58:45.795Z,13.60
2018-12-04T05:01:11.889Z,13.90
2018-12-04T05:03:37.939Z,13.80
2018-12-04T05:06:04.413Z,13.49
2018-12-04T05:08:30.442Z,13.57
2018-12-04T05:10:56.428Z,13.75
2018-12-04T05:13:22.415Z,13.57
2018-12-04T05:15:48.501Z,13.69
2018-12-04T05:18:14.478Z,13.43
2018-12-04T05:20:40.498Z,13.54
2018-12-04T05:23:06.483Z,13.55
2018-12-04T05:25:32.468Z,13.44
2018-12-04T05:27:58.452Z,13.52
2018-12-04T05:30:24.462Z,13.82
2018-12-04T05:32:50.424Z,13.48
2018-12-04T05:35:16.407Z,13.65
2018-12-04T05:37:42.393Z,13.08
2018-12-04T05:40:08.392Z,13.17
2018-12-04T05:42:34.524Z,13.65
2018-12-04T05:45:00.528Z,13.59
2018-12-04T05:47:26.481Z,13.54
2018-12-04T05:49:52.515Z,13.39
2018-12-04T05:52:18.466Z,13.33
2018-12-04T05:54:44.432Z,13.39
2018-12-04T05:57:10.484Z,13.48
2018-12-04T05:59:36.444Z,13.09
2018-12-04T06:02:02.442Z,12.88
2018-12-04T06:04:28.396Z,13.00
2018-12-04T06:06:54.396Z,13.20
2018-12-04T06:09:20.484Z,13.33
2018-12-04T06:11:46.730Z,13.33
2018-12-04T06:14:12.682Z,13.62
2018-12-04T06:16:38.717Z,13.37
2018-12-04T06:19:04.746Z,13.53
2018-12-04T06:21:30.718Z,12.88
2018-12-04T06:23:56.710Z,13.06
2018-12-04T06:26:22.682Z,13.10
2018-12-04T06:28:48.692Z,13.23
2018-12-04T06:31:14.716Z,13.13
2018-12-04T06:33:40.716Z,13.43
2018-12-04T06:36:06.716Z,12.82
2018-12-04T06:38:32.686Z,13.27
2018-12-04T06:40:58.688Z,13.08
2018-12-04T06:43:24.771Z,13.36
2018-12-04T06:45:50.780Z,13.27
2018-12-04T06:48:16.746Z,12.70
2018-12-04T06:50:42.755Z,12.80
2018-12-04T06:53:08.783Z,12.91
2018-12-04T06:55:34.770Z,13.10
2018-12-04T06:58:00.797Z,12.63
2018-12-04T07:00:26.819Z,12.95
2018-12-04T07:02:52.776Z,12.98
2018-12-04T07:05:25.624Z,12.85
2018-12-04T07:07:51.732Z,12.92
2018-12-04T07:10:17.799Z,13.07
2018-12-04T07:12:43.782Z,13.02
2018-12-04T07:15:09.805Z,13.35
2018-12-04T07:17:35.795Z,12.86
2018-12-04T07:20:01.790Z,13.07
2018-12-04T07:22:27.767Z,12.91
2018-12-04T07:24:53.762Z,12.85
2018-12-04T07:27:19.764Z,12.88
2018-12-04T07:29:45.789Z,12.43
2018-12-04T07:32:11.857Z,12.67
2018-12-04T07:34:37.872Z,12.91
2018-12-04T07:37:03.873Z,12.86
2018-12-04T07:39:29.833Z,12.78
2018-12-04T07:41:55.838Z,12.41
2018-12-04T07:44:21.806Z,12.77
2018-12-04T07:46:48.414Z,12.37
2018-12-04T07:49:14.388Z,12.90
2018-12-04T07:51:40.393Z,12.66
2018-12-04T07:54:06.350Z,13.15
2018-12-04T07:56:32.344Z,12.50
2018-12-04T07:58:58.309Z,12.51
2018-12-04T08:01:24.324Z,12.85
2018-12-04T08:03:50.284Z,12.48
2018-12-04T08:06:16.319Z,12.60
2018-12-04T08:08:42.284Z,12.69
2018-12-04T08:11:08.309Z,12.67
2018-12-04T08:13:34.272Z,12.68
2018-12-04T08:16:00.276Z,12.71
2018-12-04T08:18:26.248Z,13.07
2018-12-04T08:20:52.324Z,12.39
2018-12-04T08:23:18.288Z,12.66
2018-12-04T08:25:44.350Z,12.92
2018-12-04T08:28:10.316Z,13.01
2018-12-04T08:30:36.312Z,12.72
2018-12-04T08:33:02.261Z,12.97
2018-12-04T08:35:28.342Z,12.59
2018-12-04T08:37:54.298Z,12.84
2018-12-04T08:40:20.297Z,12.49
2018-12-04T08:42:46.294Z,12.95
2018-12-04T08:45:12.261Z,12.76
2018-12-04T08:47:41.205Z,12.59
2018-12-04T08:50:07.321Z,12.56
2018-12-04T08:52:33.305Z,12.58
2018-12-04T08:54:59.373Z,12.88
2018-12-04T08:57:25.433Z,12.69
2018-12-04T08:59:51.537Z,12.97
2018-12-04T09:02:17.504Z,12.68
2018-12-04T09:04:43.465Z,13.18
2018-12-04T09:07:09.877Z,13.38
2018-12-04T09:09:35.867Z,13.27
2018-12-04T09:12:01.941Z,13.27
2018-12-04T09:14:27.937Z,13.37
2018-12-04T09:16:53.987Z,13.16
2018-12-04T09:19:19.989Z,13.08
2018-12-04T09:21:46.125Z,13.18
2018-12-04T09:24:12.269Z,12.83
2018-12-04T09:26:38.400Z,13.42
2018-12-04T09:29:04.609Z,13.39
2018-12-04T09:31:30.775Z,13.21
2018-12-04T09:33:56.778Z,13.17
2018-12-04T09:36:22.749Z,12.81
2018-12-04T09:38:48.758Z,13.34
2018-12-04T09:41:14.725Z,13.54
2018-12-04T09:43:40.718Z,13.51
2018-12-04T09:46:06.675Z,13.61
2018-12-04T09:48:33.232Z,13.14
2018-12-04T09:50:59.215Z,12.84
2018-12-04T09:53:25.437Z,13.49
2018-12-04T09:55:51.616Z,13.00
2018-12-04T09:58:17.620Z,13.30
2018-12-04T10:00:44.114Z,13.30
2018-12-04T10:03:10.114Z,13.35
2018-12-04T10:05:36.074Z,13.07
2018-12-04T10:08:02.076Z,13.37
2018-12-04T10:10:28.178Z,12.86
2018-12-04T10:12:54.283Z,13.33
2018-12-04T10:15:20.435Z,13.42
2018-12-04T10:17:46.459Z,13.65
2018-12-04T10:20:12.506Z,13.88
2018-12-04T10:22:38.494Z,13.33
2018-12-04T10:25:04.591Z,13.52
2018-12-04T10:27:30.564Z,13.26
2018-12-04T10:29:56.604Z,13.38
2018-12-04T10:32:22.563Z,13.22
2018-12-04T10:34:49.991Z,13.35
2018-12-04T10:37:16.008Z,13.34
2018-12-04T10:39:42.044Z,13.13
2018-12-04T10:42:08.013Z,13.55
2018-12-04T10:44:33.978Z,13.40
2018-12-04T10:47:00.018Z,13.58
2018-12-04T10:49:26.032Z,13.49
2018-12-04T10:51:52.084Z,13.39
2018-12-04T10:54:18.049Z,13.57
2018-12-04T10:56:44.062Z,13.72
2018-12-04T10:59:10.051Z,13.78
2018-12-04T11:01:42.167Z,13.60
2018-12-04T11:04:08.153Z,14.03
2018-12-04T11:06:34.131Z,13.43
2018-12-04T11:09:00.126Z,13.57
2018-12-04T11:11:26.111Z,14.03
2018-12-04T11:13:59.300Z,13.95
2018-12-04T11:16:25.265Z,13.76
2018-12-04T11:18:51.306Z,13.95
2018-12-04T11:21:17.369Z,13.86
2018-12-04T11:23:43.335Z,13.49
2018-12-04T11:26:09.341Z,13.45
2018-12-04T11:28:35.310Z,13.46
2018-12-04T11:31:01.306Z,13.77
2018-12-04T11:33:27.269Z,13.56
2018-12-04T11:35:53.343Z,13.86
2018-12-04T11:38:19.383Z,14.24
2018-12-04T11:40:45.353Z,13.63
2018-12-04T11:43:11.347Z,14.35
2018-12-04T11:45:37.354Z,14.14
2018-12-04T11:48:03.319Z,13.90
2018-12-04T11:50:29.341Z,13.79
2018-12-04T11:52:55.332Z,13.99
2018-12-04T11:55:21.304Z,14.13
2018-12-04T11:57:47.305Z,14.12
2018-12-04T12:00:15.465Z,13.82
2018-12-04T12:02:41.462Z,14.35
2018-12-04T12:05:07.412Z,14.18
2018-12-04T12:07:33.415Z,14.47
2018-12-04T12:09:59.379Z,14.03
2018-12-04T12:12:26.317Z,14.15
2018-12-04T12:14:52.376Z,14.02
2018-12-04T12:17:18.511Z,14.22
2018-12-04T12:19:44.479Z,13.93
2018-12-04T12:22:13.861Z,14.26
2018-12-04T12:24:39.911Z,13.95
2018-12-04T12:27:05.930Z,13.79
2018-12-04T12:29:31.890Z,13.73
2018-12-04T12:31:57.889Z,13.87
2018-12-04T12:34:23.978Z,14.19
2018-12-04T12:36:50.034Z,13.63
2018-12-04T12:39:16.026Z,14.22
2018-12-04T12:41:42.096Z,14.42
2018-12-04T12:44:08.077Z,14.56
2018-12-04T12:46:34.154Z,14.63
2018-12-04T12:49:00.107Z,14.38
2018-12-04T12:51:26.128Z,13.98
2018-12-04T12:53:52.158Z,14.14
2018-12-04T12:56:18.216Z,13.92
2018-12-04T12:58:44.281Z,14.33
2018-12-04T13:01:10.354Z,14.14
2018-12-04T13:03:36.446Z,14.40
2018-12-04T13:06:02.456Z,14.68
2018-12-04T13:08:28.465Z,14.18
2018-12-04T13:10:54.617Z,14.59
2018-12-04T13:13:20.717Z,14.52
2018-12-04T13:15:46.724Z,14.14
2018-12-04T13:18:12.803Z,14.05
2018-12-04T13:20:38.814Z,14.64
2018-12-04T13:23:04.819Z,14.24
2018-12-04T13:25:30.943Z,14.54
2018-12-04T13:27:56.907Z,13.90
2018-12-04T13:30:22.917Z,14.46
2018-12-04T13:32:49.009Z,14.65
2018-12-04T13:35:14.993Z,14.57
2018-12-04T13:37:40.965Z,14.64
2018-12-04T13:40:08.809Z,14.74
2018-12-04T13:42:35.199Z,14.74
2018-12-04T13:45:01.215Z,14.50
2018-12-04T13:47:27.190Z,14.43
2018-12-04T13:49:53.163Z,14.16
2018-12-04T13:52:19.183Z,13.62
2018-12-04T13:54:45.176Z,14.06
2018-12-04T13:57:11.284Z,14.14
2018-12-04T13:59:37.394Z,13.56
2018-12-04T14:02:03.513Z,13.86
2018-12-04T14:04:29.601Z,13.93
2018-12-04T14:06:55.604Z,13.60
2018-12-04T14:09:25.652Z,14.19
2018-12-04T14:11:49.590Z,14.31
2018-12-04T14:14:15.571Z,13.70
2018-12-04T14:16:41.699Z,14.16
2018-12-04T14:19:07.680Z,13.88
2018-12-04T14:21:33.789Z,13.94
2018-12-04T14:23:59.796Z,13.61
2018-12-04T14:26:26.087Z,13.57
2018-12-04T14:28:52.067Z,13.59
2018-12-04T14:31:18.104Z,14.06
2018-12-04T14:33:44.172Z,13.85
2018-12-04T14:36:10.297Z,13.57
2018-12-04T14:38:36.295Z,13.64
2018-12-04T14:41:02.310Z,14.01
2018-12-04T14:43:28.269Z,13.93
2018-12-04T14:45:54.272Z,13.06
2018-12-04T14:48:20.392Z,13.49
2018-12-04T14:50:46.377Z,13.61
2018-12-04T14:53:12.414Z,13.38
2018-12-04T14:55:38.396Z,13.54
2018-12-04T14:58:04.472Z,13.63
2018-12-04T15:00:30.443Z,13.79
2018-12-04T15:02:56.721Z,13.23
2018-12-04T15:05:22.883Z,13.19
2018-12-04T15:07:48.917Z,13.45
2018-12-04T15:10:14.881Z,13.54
2018-12-04T15:12:41.000Z,13.27
2018-12-04T15:15:07.099Z,13.45
2018-12-04T15:17:33.100Z,13.11
2018-12-04T15:19:59.166Z,12.94
2018-12-04T15:22:25.242Z,13.16
2018-12-04T15:24:51.251Z,12.95
2018-12-04T15:27:17.220Z,13.25
2018-12-04T15:29:43.269Z,13.20
2018-12-04T15:32:09.294Z,13.05
2018-12-04T15:34:35.400Z,13.01
2018-12-04T15:37:01.501Z,13.10
2018-12-04T15:39:27.762Z,13.08
2018-12-04T15:41:53.891Z,12.92
2018-12-04T15:44:19.958Z,12.91
2018-12-04T15:46:46.101Z,12.92
2018-12-04T15:49:12.192Z,13.29
2018-12-04T15:51:38.222Z,13.21
2018-12-04T15:54:04.324Z,13.12
2018-12-04T15:56:32.516Z,13.05
2018-12-04T15:58:58.624Z,12.87
2018-12-04T16:01:24.614Z,12.93
2018-12-04T16:03:50.615Z,13.17
2018-12-04T16:06:16.609Z,13.00
2018-12-04T16:08:42.637Z,12.68
2018-12-04T16:11:08.812Z,12.72
2018-12-04T16:13:34.873Z,12.95
2018-12-04T16:16:00.901Z,12.71
2018-12-04T16:18:26.904Z,13.09
2018-12-04T16:20:52.896Z,12.80
2018-12-04T16:23:18.919Z,12.81
2018-12-04T16:25:44.933Z,12.69
2018-12-04T16:28:10.895Z,12.79
2018-12-04T16:30:36.929Z,12.88
2018-12-04T16:33:02.907Z,13.01
2018-12-04T16:35:28.915Z,12.88
2018-12-04T16:37:54.884Z,12.92
2018-12-04T16:40:20.933Z,12.77
2018-12-04T16:42:46.897Z,12.90
2018-12-04T16:45:12.913Z,12.80
2018-12-04T16:47:38.909Z,12.84
2018-12-04T16:50:04.992Z,12.77
2018-12-04T16:52:31.009Z,12.88
2018-12-04T16:54:57.089Z,12.59
2018-12-04T16:57:23.179Z,12.83
2018-12-04T16:59:49.263Z,12.54
2018-12-04T17:02:15.251Z,12.44
2018-12-04T17:04:41.321Z,12.53
2018-12-04T17:07:07.335Z,12.79
2018-12-04T17:09:33.314Z,12.70
2018-12-04T17:11:59.377Z,12.56
2018-12-04T17:14:25.352Z,12.78
2018-12-04T17:16:51.356Z,12.40
2018-12-04T17:19:17.472Z,12.58
2018-12-04T17:21:43.472Z,12.56
2018-12-04T17:24:09.574Z,12.35
2018-12-04T17:26:35.618Z,12.57
2018-12-04T17:29:01.581Z,12.46
2018-12-04T17:31:27.599Z,12.19
2018-12-04T17:33:55.048Z,12.00
2018-12-04T17:36:21.369Z,11.81
2018-12-04T17:38:47.380Z,11.90
2018-12-04T17:41:13.427Z,12.09
2018-12-04T17:43:39.433Z,12.16
2018-12-04T17:46:05.395Z,12.25
2018-12-04T17:48:31.424Z,11.85
2018-12-04T17:50:57.772Z,11.99
2018-12-04T17:53:23.783Z,11.77
2018-12-04T17:55:49.809Z,11.93
2018-12-04T17:58:15.769Z,11.62
2018-12-04T18:00:41.828Z,11.82
2018-12-04T18:03:07.862Z,11.52
2018-12-04T18:05:33.832Z,11.63
2018-12-04T18:07:59.839Z,11.66
2018-12-04T18:10:25.884Z,11.72
2018-12-04T18:12:51.933Z,11.68
2018-12-04T18:15:17.942Z,11.75
2018-12-04T18:17:43.963Z,11.66
2018-12-04T18:20:09.926Z,11.57
2018-12-04T18:22:35.970Z,11.48
2018-12-04T18:25:02.072Z,11.55
2018-12-04T18:27:28.079Z,11.28
2018-12-04T18:29:54.043Z,11.12
2018-12-04T18:32:20.096Z,11.01
2018-12-04T18:34:46.197Z,11.27
2018-12-04T18:37:12.245Z,11.03
2018-12-04T18:39:38.388Z,10.82
2018-12-04T18:42:04.399Z,11.03
2018-12-04T18:44:30.393Z,10.82
2018-12-04T18:46:56.424Z,10.91
2018-12-04T18:49:23.066Z,10.98
2018-12-04T18:51:49.066Z,11.01
2018-12-04T18:54:15.112Z,11.12
2018-12-04T18:56:41.087Z,11.35
2018-12-04T18:59:07.295Z,11.10
2018-12-04T19:01:33.415Z,11.13
2018-12-04T19:03:59.463Z,11.34
2018-12-04T19:06:25.459Z,11.33
2018-12-04T19:08:51.560Z,11.28
2018-12-04T19:11:17.526Z,11.10
2018-12-04T19:13:43.582Z,11.17
2018-12-04T19:16:09.605Z,11.28
2018-12-04T19:18:35.687Z,11.45
2018-12-04T19:21:01.654Z,11.18
2018-12-04T19:23:27.654Z,11.05
2018-12-04T19:25:53.681Z,10.89
2018-12-04T19:28:19.682Z,10.96
2018-12-04T19:30:46.214Z,11.12
2018-12-04T19:33:12.238Z,10.71
2018-12-04T19:35:38.216Z,10.98
2018-12-04T19:38:04.227Z,10.79
2018-12-04T19:40:30.196Z,11.08
2018-12-04T19:42:56.228Z,11.24
2018-12-04T19:45:22.363Z,11.43
2018-12-04T19:47:48.388Z,11.15
2018-12-04T19:50:14.408Z,10.82
2018-12-04T19:52:40.420Z,10.45
2018-12-04T19:55:06.433Z,10.21
2018-12-04T19:57:32.516Z,10.30
2018-12-04T19:59:58.500Z,10.15
2018-12-04T20:02:24.528Z,10.12
2018-12-04T20:04:50.516Z,10.20
2018-12-04T20:07:16.721Z,10.44
2018-12-04T20:09:42.697Z,10.38
2018-12-04T20:12:08.922Z,10.44
2018-12-04T20:14:34.984Z,10.77
2018-12-04T20:17:00.951Z,10.35
2018-12-04T20:19:26.970Z,10.17
2018-12-04T20:21:52.963Z,10.37
2018-12-04T20:24:18.958Z,10.12
2018-12-04T20:26:45.227Z,10.13
2018-12-04T20:29:11.339Z,10.33
2018-12-04T20:31:37.330Z,10.65
2018-12-04T20:34:03.343Z,10.74
2018-12-04T20:36:29.330Z,10.64
2018-12-04T20:38:55.502Z,10.55
2018-12-04T20:41:21.590Z,10.61
2018-12-04T20:43:47.641Z,10.78
2018-12-04T20:46:13.610Z,10.40
2018-12-04T20:48:39.622Z,10.35
2018-12-04T20:51:05.739Z,10.49
2018-12-04T20:53:31.713Z,10.52
2018-12-04T20:55:57.786Z,10.15
2018-12-04T20:58:23.894Z,10.38
2018-12-04T21:00:52.287Z,10.36
2018-12-04T21:03:18.278Z,10.58
2018-12-04T21:05:44.300Z,10.55
2018-12-04T21:08:10.607Z,10.50
2018-12-04T21:10:36.627Z,10.21
2018-12-04T21:13:03.386Z,10.51
2018-12-04T21:15:29.409Z,10.52
2018-12-04T21:17:55.486Z,10.62
2018-12-04T21:20:21.470Z,10.50
2018-12-04T21:22:47.489Z,10.35
2018-12-04T21:25:13.474Z,10.60
2018-12-04T21:27:45.727Z,10.63
2018-12-04T21:30:17.807Z,10.46
2018-12-04T21:32:49.964Z,10.62
2018-12-04T21:35:22.097Z,10.32
2018-12-04T21:37:54.294Z,10.34
2018-12-04T21:43:30.279Z,10.13
2018-12-04T21:46:02.389Z,10.09
2018-12-04T21:48:28.706Z,10.27
2018-12-04T21:50:54.859Z,10.51
2018-12-04T21:53:20.854Z,10.36
2018-12-04T21:55:46.940Z,10.36
2018-12-04T21:58:12.923Z,10.57
2018-12-04T22:00:39.008Z,10.65
2018-12-04T22:03:05.021Z,10.37
2018-12-04T22:05:31.013Z,10.63
2018-12-04T22:07:56.993Z,10.49
2018-12-04T22:10:23.039Z,10.37
2018-12-04T22:12:49.129Z,10.35
2018-12-04T22:15:15.127Z,10.17
2018-12-04T22:17:42.420Z,10.31
2018-12-04T22:20:08.426Z,10.30
2018-12-04T22:22:34.492Z,10.28
2018-12-04T22:25:00.611Z,10.12
2018-12-04T22:27:26.640Z,10.07
2018-12-04T22:29:52.651Z,10.15
2018-12-04T22:32:18.634Z,10.17
2018-12-04T22:34:44.662Z,10.10
2018-12-04T22:37:10.642Z,9.90
2018-12-04T22:39:36.674Z,10.15
2018-12-04T22:42:02.690Z,10.33
2018-12-04T22:44:28.677Z,10.39
2018-12-04T22:46:54.689Z,10.09
2018-12-04T22:49:20.675Z,9.92
2018-12-04T22:51:46.746Z,10.17
2018-12-04T22:54:12.740Z,10.09
2018-12-04T22:56:38.798Z,10.04
2018-12-04T22:59:04.813Z,9.81
2018-12-04T23:01:36.981Z,9.98
2018-12-04T23:04:04.049Z,9.79
2018-12-04T23:06:30.164Z,9.95
2018-12-04T23:08:56.213Z,9.93
2018-12-04T23:11:22.241Z,9.68
2018-12-04T23:13:48.797Z,10.01
2018-12-04T23:16:14.999Z,10.29
2018-12-04T23:18:40.964Z,9.93
2018-12-04T23:21:07.011Z,9.94
2018-12-04T23:23:32.998Z,10.17
2018-12-04T23:25:58.981Z,9.96
2018-12-04T23:28:25.027Z,10.26
2018-12-04T23:30:51.052Z,10.27
2018-12-04T23:33:17.076Z,10.10
2018-12-04T23:35:43.036Z,10.05
2018-12-04T23:38:09.062Z,10.02
2018-12-04T23:40:35.164Z,9.95
2018-12-04T23:43:01.184Z,9.82
2018-12-04T23:45:27.178Z,9.75
2018-12-04T23:47:53.252Z,9.89
2018-12-04T23:50:19.318Z,9.77
2018-12-04T23:52:45.344Z,9.95
2018-12-04T23:55:11.302Z,9.83
2018-12-04T23:57:37.407Z,9.76
